sensor_id;sensor_type;location;lat;lon;timestamp;P1;durP1;ratioP1;P2;durP2;ratioP2
42964;SDS011;28604;51.204;22.552;2022-10-16T00:01:37;21.67;;;11.43;;
42964;SDS011;28604;51.204;22.552;2022-10-16T00:04:04;14.23;;;11.45;;
42964;SDS011;28604;51.204;22.552;2022-10-16T00:06:30;16.33;;;11.50;;
42964;SDS011;28604;51.204;22.552;2022-10-16T00:08:57;18.58;;;12.45;;
42964;SDS011;28604;51.204;22.552;2022-10-16T00:11:24;18.83;;;11.45;;
42964;SDS011;28604;51.204;22.552;2022-10-16T00:13:57;21.08;;;11.23;;
42964;SDS011;28604;51.204;22.552;2022-10-16T00:16:24;17.98;;;12.02;;
42964;SDS011;28604;51.204;22.552;2022-10-16T00:18:51;19.23;;;11.70;;
42964;SDS011;28604;51.204;22.552;2022-10-16T00:21:19;16.35;;;11.95;;
42964;SDS011;28604;51.204;22.552;2022-10-16T00:23:49;14.50;;;10.88;;
42964;SDS011;28604;51.204;22.552;2022-10-16T00:26:19;12.25;;;10.05;;
42964;SDS011;28604;51.204;22.552;2022-10-16T00:28:46;16.20;;;11.02;;
42964;SDS011;28604;51.204;22.552;2022-10-16T00:31:14;21.38;;;11.45;;
42964;SDS011;28604;51.204;22.552;2022-10-16T00:33:40;21.63;;;11.75;;
42964;SDS011;28604;51.204;22.552;2022-10-16T00:36:07;15.07;;;11.70;;
42964;SDS011;28604;51.204;22.552;2022-10-16T00:38:36;15.13;;;10.88;;
42964;SDS011;28604;51.204;22.552;2022-10-16T00:41:03;17.13;;;11.60;;
42964;SDS011;28604;51.204;22.552;2022-10-16T00:46:03;17.23;;;11.77;;
42964;SDS011;28604;51.204;22.552;2022-10-16T00:48:35;16.23;;;12.05;;
42964;SDS011;28604;51.204;22.552;2022-10-16T00:51:01;17.38;;;12.32;;
42964;SDS011;28604;51.204;22.552;2022-10-16T00:53:27;15.15;;;12.23;;
42964;SDS011;28604;51.204;22.552;2022-10-16T00:55:53;18.10;;;11.80;;
42964;SDS011;28604;51.204;22.552;2022-10-16T00:58:20;16.13;;;11.57;;
42964;SDS011;28604;51.204;22.552;2022-10-16T01:00:46;17.80;;;12.02;;
42964;SDS011;28604;51.204;22.552;2022-10-16T01:03:26;16.98;;;12.48;;
42964;SDS011;28604;51.204;22.552;2022-10-16T01:05:56;18.85;;;11.95;;
42964;SDS011;28604;51.204;22.552;2022-10-16T01:11:25;18.00;;;12.02;;
42964;SDS011;28604;51.204;22.552;2022-10-16T01:14:00;19.55;;;12.65;;
42964;SDS011;28604;51.204;22.552;2022-10-16T01:16:34;17.90;;;11.75;;
42964;SDS011;28604;51.204;22.552;2022-10-16T01:19:14;21.77;;;12.68;;
42964;SDS011;28604;51.204;22.552;2022-10-16T01:21:43;22.17;;;13.32;;
42964;SDS011;28604;51.204;22.552;2022-10-16T01:32:36;19.50;;;12.70;;
42964;SDS011;28604;51.204;22.552;2022-10-16T01:37:59;16.85;;;12.00;;
42964;SDS011;28604;51.204;22.552;2022-10-16T01:40:36;22.60;;;12.27;;
42964;SDS011;28604;51.204;22.552;2022-10-16T01:43:07;20.13;;;12.38;;
42964;SDS011;28604;51.204;22.552;2022-10-16T01:45:35;15.52;;;12.25;;
42964;SDS011;28604;51.204;22.552;2022-10-16T01:48:02;18.35;;;13.15;;
42964;SDS011;28604;51.204;22.552;2022-10-16T01:50:31;17.52;;;12.85;;
42964;SDS011;28604;51.204;22.552;2022-10-16T01:53:00;20.42;;;12.10;;
42964;SDS011;28604;51.204;22.552;2022-10-16T01:55:29;19.20;;;12.57;;
42964;SDS011;28604;51.204;22.552;2022-10-16T01:57:59;16.85;;;12.80;;
42964;SDS011;28604;51.204;22.552;2022-10-16T02:00:28;23.05;;;12.75;;
42964;SDS011;28604;51.204;22.552;2022-10-16T02:02:55;21.00;;;13.25;;
42964;SDS011;28604;51.204;22.552;2022-10-16T02:05:28;17.98;;;12.50;;
42964;SDS011;28604;51.204;22.552;2022-10-16T02:08:13;20.60;;;13.18;;
42964;SDS011;28604;51.204;22.552;2022-10-16T02:10:39;17.20;;;12.95;;
42964;SDS011;28604;51.204;22.552;2022-10-16T02:15:34;19.50;;;12.75;;
42964;SDS011;28604;51.204;22.552;2022-10-16T02:18:01;21.65;;;12.35;;
42964;SDS011;28604;51.204;22.552;2022-10-16T02:20:47;21.33;;;13.55;;
42964;SDS011;28604;51.204;22.552;2022-10-16T02:23:29;20.83;;;13.35;;
42964;SDS011;28604;51.204;22.552;2022-10-16T02:26:24;20.17;;;12.82;;
42964;SDS011;28604;51.204;22.552;2022-10-16T02:28:59;17.52;;;12.50;;
42964;SDS011;28604;51.204;22.552;2022-10-16T02:31:31;18.05;;;13.07;;
42964;SDS011;28604;51.204;22.552;2022-10-16T02:34:00;23.73;;;12.85;;
42964;SDS011;28604;51.204;22.552;2022-10-16T02:36:30;20.20;;;12.90;;
42964;SDS011;28604;51.204;22.552;2022-10-16T02:38:58;18.05;;;13.57;;
42964;SDS011;28604;51.204;22.552;2022-10-16T02:41:26;22.50;;;13.90;;
42964;SDS011;28604;51.204;22.552;2022-10-16T02:43:52;19.25;;;13.85;;
42964;SDS011;28604;51.204;22.552;2022-10-16T02:46:20;20.00;;;12.88;;
42964;SDS011;28604;51.204;22.552;2022-10-16T02:48:46;21.02;;;13.05;;
42964;SDS011;28604;51.204;22.552;2022-10-16T02:51:12;20.45;;;13.05;;
42964;SDS011;28604;51.204;22.552;2022-10-16T02:53:38;27.77;;;13.98;;
42964;SDS011;28604;51.204;22.552;2022-10-16T02:56:04;19.90;;;13.30;;
42964;SDS011;28604;51.204;22.552;2022-10-16T02:58:30;17.77;;;13.32;;
42964;SDS011;28604;51.204;22.552;2022-10-16T03:00:56;18.35;;;13.52;;
42964;SDS011;28604;51.204;22.552;2022-10-16T03:03:22;24.92;;;13.90;;
42964;SDS011;28604;51.204;22.552;2022-10-16T03:05:48;21.98;;;12.40;;
42964;SDS011;28604;51.204;22.552;2022-10-16T03:08:14;18.77;;;13.15;;
42964;SDS011;28604;51.204;22.552;2022-10-16T03:10:40;24.65;;;14.32;;
42964;SDS011;28604;51.204;22.552;2022-10-16T03:13:06;20.00;;;13.48;;
42964;SDS011;28604;51.204;22.552;2022-10-16T03:15:32;21.52;;;13.82;;
42964;SDS011;28604;51.204;22.552;2022-10-16T03:17:58;23.50;;;13.85;;
42964;SDS011;28604;51.204;22.552;2022-10-16T03:20:24;22.13;;;12.52;;
42964;SDS011;28604;51.204;22.552;2022-10-16T03:22:51;21.00;;;13.65;;
42964;SDS011;28604;51.204;22.552;2022-10-16T03:25:17;21.17;;;12.77;;
42964;SDS011;28604;51.204;22.552;2022-10-16T03:27:42;20.85;;;13.85;;
42964;SDS011;28604;51.204;22.552;2022-10-16T03:30:09;20.58;;;13.13;;
42964;SDS011;28604;51.204;22.552;2022-10-16T03:32:35;25.95;;;13.27;;
42964;SDS011;28604;51.204;22.552;2022-10-16T03:35:01;23.73;;;13.18;;
42964;SDS011;28604;51.204;22.552;2022-10-16T03:37:27;18.30;;;13.32;;
42964;SDS011;28604;51.204;22.552;2022-10-16T03:39:53;17.60;;;13.02;;
42964;SDS011;28604;51.204;22.552;2022-10-16T03:42:19;17.83;;;12.50;;
42964;SDS011;28604;51.204;22.552;2022-10-16T03:44:45;20.80;;;13.23;;
42964;SDS011;28604;51.204;22.552;2022-10-16T03:47:10;21.85;;;12.32;;
42964;SDS011;28604;51.204;22.552;2022-10-16T03:49:36;18.77;;;13.43;;
42964;SDS011;28604;51.204;22.552;2022-10-16T03:52:02;19.08;;;13.70;;
42964;SDS011;28604;51.204;22.552;2022-10-16T03:54:28;20.85;;;13.93;;
42964;SDS011;28604;51.204;22.552;2022-10-16T03:56:54;24.83;;;13.98;;
42964;SDS011;28604;51.204;22.552;2022-10-16T03:59:20;19.85;;;13.75;;
42964;SDS011;28604;51.204;22.552;2022-10-16T04:01:46;23.35;;;12.85;;
42964;SDS011;28604;51.204;22.552;2022-10-16T04:04:12;19.75;;;13.57;;
42964;SDS011;28604;51.204;22.552;2022-10-16T04:06:38;19.13;;;13.32;;
42964;SDS011;28604;51.204;22.552;2022-10-16T04:09:04;17.77;;;12.70;;
42964;SDS011;28604;51.204;22.552;2022-10-16T04:11:29;15.98;;;13.45;;
42964;SDS011;28604;51.204;22.552;2022-10-16T04:13:55;19.92;;;13.25;;
42964;SDS011;28604;51.204;22.552;2022-10-16T04:16:21;20.98;;;13.65;;
42964;SDS011;28604;51.204;22.552;2022-10-16T04:18:47;23.33;;;14.52;;
42964;SDS011;28604;51.204;22.552;2022-10-16T04:21:13;21.60;;;14.45;;
42964;SDS011;28604;51.204;22.552;2022-10-16T04:23:39;17.27;;;13.68;;
42964;SDS011;28604;51.204;22.552;2022-10-16T04:26:05;20.20;;;12.57;;
42964;SDS011;28604;51.204;22.552;2022-10-16T04:28:31;27.73;;;13.65;;
42964;SDS011;28604;51.204;22.552;2022-10-16T04:30:57;18.90;;;13.25;;
42964;SDS011;28604;51.204;22.552;2022-10-16T04:33:23;24.67;;;13.30;;
42964;SDS011;28604;51.204;22.552;2022-10-16T04:35:55;22.83;;;13.90;;
42964;SDS011;28604;51.204;22.552;2022-10-16T04:38:22;25.45;;;14.48;;
42964;SDS011;28604;51.204;22.552;2022-10-16T04:40:48;20.58;;;13.15;;
42964;SDS011;28604;51.204;22.552;2022-10-16T04:43:14;18.58;;;13.95;;
42964;SDS011;28604;51.204;22.552;2022-10-16T04:45:40;20.92;;;13.68;;
42964;SDS011;28604;51.204;22.552;2022-10-16T04:48:06;14.98;;;12.85;;
42964;SDS011;28604;51.204;22.552;2022-10-16T04:50:31;17.50;;;12.63;;
42964;SDS011;28604;51.204;22.552;2022-10-16T04:53:04;20.27;;;14.18;;
42964;SDS011;28604;51.204;22.552;2022-10-16T04:55:31;19.13;;;12.95;;
42964;SDS011;28604;51.204;22.552;2022-10-16T04:57:57;18.38;;;12.63;;
42964;SDS011;28604;51.204;22.552;2022-10-16T05:00:23;17.55;;;12.27;;
42964;SDS011;28604;51.204;22.552;2022-10-16T05:02:50;18.38;;;14.63;;
42964;SDS011;28604;51.204;22.552;2022-10-16T05:05:16;19.67;;;13.27;;
42964;SDS011;28604;51.204;22.552;2022-10-16T05:07:44;21.13;;;13.90;;
42964;SDS011;28604;51.204;22.552;2022-10-16T05:10:11;20.48;;;13.00;;
42964;SDS011;28604;51.204;22.552;2022-10-16T05:12:37;19.52;;;13.15;;
42964;SDS011;28604;51.204;22.552;2022-10-16T05:15:03;22.83;;;13.35;;
42964;SDS011;28604;51.204;22.552;2022-10-16T05:17:29;19.08;;;12.65;;
42964;SDS011;28604;51.204;22.552;2022-10-16T05:19:55;18.48;;;12.38;;
42964;SDS011;28604;51.204;22.552;2022-10-16T05:22:21;22.20;;;12.57;;
42964;SDS011;28604;51.204;22.552;2022-10-16T05:24:47;17.45;;;11.70;;
42964;SDS011;28604;51.204;22.552;2022-10-16T05:27:13;18.95;;;12.60;;
42964;SDS011;28604;51.204;22.552;2022-10-16T05:29:44;16.13;;;11.95;;
42964;SDS011;28604;51.204;22.552;2022-10-16T05:32:12;22.65;;;13.85;;
42964;SDS011;28604;51.204;22.552;2022-10-16T05:34:39;18.00;;;12.48;;
42964;SDS011;28604;51.204;22.552;2022-10-16T05:37:05;21.08;;;12.27;;
42964;SDS011;28604;51.204;22.552;2022-10-16T05:39:31;21.02;;;12.23;;
42964;SDS011;28604;51.204;22.552;2022-10-16T05:41:57;19.45;;;11.57;;
42964;SDS011;28604;51.204;22.552;2022-10-16T05:44:22;19.90;;;12.25;;
42964;SDS011;28604;51.204;22.552;2022-10-16T05:46:48;14.48;;;11.90;;
42964;SDS011;28604;51.204;22.552;2022-10-16T05:49:14;14.70;;;11.38;;
42964;SDS011;28604;51.204;22.552;2022-10-16T05:51:40;14.48;;;11.70;;
42964;SDS011;28604;51.204;22.552;2022-10-16T05:54:07;19.02;;;12.15;;
42964;SDS011;28604;51.204;22.552;2022-10-16T05:56:33;15.13;;;11.55;;
42964;SDS011;28604;51.204;22.552;2022-10-16T05:58:59;19.33;;;12.05;;
42964;SDS011;28604;51.204;22.552;2022-10-16T06:01:25;18.98;;;11.38;;
42964;SDS011;28604;51.204;22.552;2022-10-16T06:03:51;19.50;;;11.77;;
42964;SDS011;28604;51.204;22.552;2022-10-16T06:06:18;16.83;;;12.52;;
42964;SDS011;28604;51.204;22.552;2022-10-16T06:08:47;18.50;;;12.82;;
42964;SDS011;28604;51.204;22.552;2022-10-16T06:11:15;16.65;;;11.70;;
42964;SDS011;28604;51.204;22.552;2022-10-16T06:13:43;19.20;;;11.65;;
42964;SDS011;28604;51.204;22.552;2022-10-16T06:19:03;23.27;;;12.23;;
42964;SDS011;28604;51.204;22.552;2022-10-16T06:21:31;14.48;;;11.68;;
42964;SDS011;28604;51.204;22.552;2022-10-16T06:23:57;14.60;;;11.90;;
42964;SDS011;28604;51.204;22.552;2022-10-16T06:26:27;20.35;;;12.27;;
42964;SDS011;28604;51.204;22.552;2022-10-16T06:28:55;16.58;;;11.25;;
42964;SDS011;28604;51.204;22.552;2022-10-16T06:31:21;21.88;;;12.27;;
42964;SDS011;28604;51.204;22.552;2022-10-16T06:33:50;16.95;;;12.38;;
42964;SDS011;28604;51.204;22.552;2022-10-16T06:36:17;21.42;;;12.90;;
42964;SDS011;28604;51.204;22.552;2022-10-16T06:38:44;18.60;;;12.30;;
42964;SDS011;28604;51.204;22.552;2022-10-16T06:41:11;19.70;;;12.70;;
42964;SDS011;28604;51.204;22.552;2022-10-16T06:43:42;15.80;;;11.90;;
42964;SDS011;28604;51.204;22.552;2022-10-16T06:48:47;17.98;;;12.15;;
42964;SDS011;28604;51.204;22.552;2022-10-16T06:51:17;16.70;;;12.43;;
42964;SDS011;28604;51.204;22.552;2022-10-16T06:53:45;24.40;;;12.25;;
42964;SDS011;28604;51.204;22.552;2022-10-16T06:56:18;14.83;;;11.70;;
42964;SDS011;28604;51.204;22.552;2022-10-16T06:58:49;21.48;;;12.80;;
42964;SDS011;28604;51.204;22.552;2022-10-16T07:01:16;21.42;;;13.05;;
42964;SDS011;28604;51.204;22.552;2022-10-16T07:03:44;16.40;;;12.23;;
42964;SDS011;28604;51.204;22.552;2022-10-16T07:06:11;17.00;;;12.07;;
42964;SDS011;28604;51.204;22.552;2022-10-16T07:08:40;18.88;;;12.20;;
42964;SDS011;28604;51.204;22.552;2022-10-16T07:11:08;14.95;;;12.23;;
42964;SDS011;28604;51.204;22.552;2022-10-16T07:13:35;21.17;;;11.65;;
42964;SDS011;28604;51.204;22.552;2022-10-16T07:18:33;16.20;;;11.45;;
42964;SDS011;28604;51.204;22.552;2022-10-16T07:21:03;14.65;;;11.45;;
42964;SDS011;28604;51.204;22.552;2022-10-16T07:23:29;13.77;;;10.63;;
42964;SDS011;28604;51.204;22.552;2022-10-16T07:25:55;19.23;;;11.13;;
42964;SDS011;28604;51.204;22.552;2022-10-16T07:28:21;18.58;;;10.73;;
42964;SDS011;28604;51.204;22.552;2022-10-16T07:30:48;15.25;;;10.43;;
42964;SDS011;28604;51.204;22.552;2022-10-16T07:33:14;14.07;;;10.30;;
42964;SDS011;28604;51.204;22.552;2022-10-16T07:35:52;15.43;;;9.80;;
42964;SDS011;28604;51.204;22.552;2022-10-16T07:38:19;14.73;;;9.40;;
42964;SDS011;28604;51.204;22.552;2022-10-16T07:40:46;16.75;;;10.50;;
42964;SDS011;28604;51.204;22.552;2022-10-16T07:43:12;14.80;;;10.93;;
42964;SDS011;28604;51.204;22.552;2022-10-16T07:45:48;17.13;;;10.35;;
42964;SDS011;28604;51.204;22.552;2022-10-16T07:48:15;18.20;;;10.85;;
42964;SDS011;28604;51.204;22.552;2022-10-16T07:50:43;19.45;;;9.82;;
42964;SDS011;28604;51.204;22.552;2022-10-16T07:53:09;16.67;;;9.73;;
42964;SDS011;28604;51.204;22.552;2022-10-16T07:55:36;14.18;;;10.25;;
42964;SDS011;28604;51.204;22.552;2022-10-16T07:58:02;19.75;;;9.70;;
42964;SDS011;28604;51.204;22.552;2022-10-16T08:00:28;13.30;;;9.10;;
42964;SDS011;28604;51.204;22.552;2022-10-16T08:02:54;19.02;;;9.38;;
42964;SDS011;28604;51.204;22.552;2022-10-16T08:05:20;12.25;;;8.07;;
42964;SDS011;28604;51.204;22.552;2022-10-16T08:07:49;11.85;;;8.82;;
42964;SDS011;28604;51.204;22.552;2022-10-16T08:10:19;17.92;;;8.60;;
42964;SDS011;28604;51.204;22.552;2022-10-16T08:12:46;15.27;;;9.18;;
42964;SDS011;28604;51.204;22.552;2022-10-16T08:15:12;14.88;;;8.07;;
42964;SDS011;28604;51.204;22.552;2022-10-16T08:17:38;10.95;;;7.50;;
42964;SDS011;28604;51.204;22.552;2022-10-16T08:20:04;11.75;;;7.45;;
42964;SDS011;28604;51.204;22.552;2022-10-16T08:22:30;8.23;;;7.43;;
42964;SDS011;28604;51.204;22.552;2022-10-16T08:24:56;9.70;;;8.35;;
42964;SDS011;28604;51.204;22.552;2022-10-16T08:27:23;11.90;;;7.68;;
42964;SDS011;28604;51.204;22.552;2022-10-16T08:29:49;10.48;;;7.38;;
42964;SDS011;28604;51.204;22.552;2022-10-16T08:32:15;8.00;;;6.68;;
42964;SDS011;28604;51.204;22.552;2022-10-16T08:34:41;11.18;;;7.45;;
42964;SDS011;28604;51.204;22.552;2022-10-16T08:37:07;12.00;;;7.30;;
42964;SDS011;28604;51.204;22.552;2022-10-16T08:39:36;10.45;;;7.07;;
42964;SDS011;28604;51.204;22.552;2022-10-16T08:42:24;7.47;;;6.18;;
42964;SDS011;28604;51.204;22.552;2022-10-16T08:45:02;10.70;;;6.82;;
42964;SDS011;28604;51.204;22.552;2022-10-16T08:48:00;11.70;;;7.22;;
42964;SDS011;28604;51.204;22.552;2022-10-16T08:50:38;6.70;;;6.03;;
42964;SDS011;28604;51.204;22.552;2022-10-16T08:53:05;14.02;;;6.70;;
42964;SDS011;28604;51.204;22.552;2022-10-16T08:55:42;7.38;;;6.53;;
42964;SDS011;28604;51.204;22.552;2022-10-16T08:58:18;9.63;;;7.07;;
42964;SDS011;28604;51.204;22.552;2022-10-16T09:00:46;7.63;;;6.38;;
42964;SDS011;28604;51.204;22.552;2022-10-16T09:11:39;7.15;;;6.32;;
42964;SDS011;28604;51.204;22.552;2022-10-16T09:19:55;9.25;;;6.55;;
42964;SDS011;28604;51.204;22.552;2022-10-16T09:22:37;6.70;;;6.05;;
42964;SDS011;28604;51.204;22.552;2022-10-16T09:25:10;15.48;;;9.80;;
42964;SDS011;28604;51.204;22.552;2022-10-16T09:27:37;7.43;;;5.95;;
42964;SDS011;28604;51.204;22.552;2022-10-16T09:30:10;9.43;;;6.57;;
42964;SDS011;28604;51.204;22.552;2022-10-16T09:32:38;9.93;;;6.47;;
42964;SDS011;28604;51.204;22.552;2022-10-16T09:35:09;6.05;;;5.63;;
42964;SDS011;28604;51.204;22.552;2022-10-16T09:37:39;7.57;;;6.53;;
42964;SDS011;28604;51.204;22.552;2022-10-16T09:40:11;11.40;;;6.20;;
42964;SDS011;28604;51.204;22.552;2022-10-16T09:45:31;7.38;;;6.35;;
42964;SDS011;28604;51.204;22.552;2022-10-16T09:48:00;11.32;;;7.32;;
42964;SDS011;28604;51.204;22.552;2022-10-16T09:50:35;8.30;;;6.60;;
42964;SDS011;28604;51.204;22.552;2022-10-16T09:55:30;7.93;;;7.03;;
42964;SDS011;28604;51.204;22.552;2022-10-16T09:57:57;7.53;;;6.57;;
42964;SDS011;28604;51.204;22.552;2022-10-16T10:00:23;9.40;;;7.03;;
42964;SDS011;28604;51.204;22.552;2022-10-16T10:02:50;9.75;;;7.45;;
42964;SDS011;28604;51.204;22.552;2022-10-16T10:05:17;7.22;;;6.38;;
42964;SDS011;28604;51.204;22.552;2022-10-16T10:07:52;14.93;;;7.13;;
42964;SDS011;28604;51.204;22.552;2022-10-16T10:10:30;7.40;;;6.07;;
42964;SDS011;28604;51.204;22.552;2022-10-16T10:12:58;11.32;;;6.60;;
42964;SDS011;28604;51.204;22.552;2022-10-16T10:15:24;12.23;;;7.00;;
42964;SDS011;28604;51.204;22.552;2022-10-16T10:17:54;11.05;;;6.82;;
42964;SDS011;28604;51.204;22.552;2022-10-16T10:22:59;7.82;;;5.95;;
42964;SDS011;28604;51.204;22.552;2022-10-16T10:25:34;10.63;;;7.20;;
42964;SDS011;28604;51.204;22.552;2022-10-16T10:31:00;14.55;;;7.68;;
42964;SDS011;28604;51.204;22.552;2022-10-16T10:33:47;10.77;;;6.88;;
42964;SDS011;28604;51.204;22.552;2022-10-16T10:36:25;14.13;;;7.55;;
42964;SDS011;28604;51.204;22.552;2022-10-16T10:45:03;8.50;;;6.22;;
42964;SDS011;28604;51.204;22.552;2022-10-16T10:53:12;13.38;;;7.30;;
42964;SDS011;28604;51.204;22.552;2022-10-16T10:56:05;7.90;;;6.45;;
42964;SDS011;28604;51.204;22.552;2022-10-16T11:01:06;10.32;;;6.30;;
42964;SDS011;28604;51.204;22.552;2022-10-16T11:03:53;8.95;;;7.30;;
42964;SDS011;28604;51.204;22.552;2022-10-16T11:09:15;7.78;;;6.38;;
42964;SDS011;28604;51.204;22.552;2022-10-16T11:12:06;9.43;;;6.45;;
42964;SDS011;28604;51.204;22.552;2022-10-16T11:17:23;8.60;;;6.25;;
42964;SDS011;28604;51.204;22.552;2022-10-16T11:19:58;9.30;;;6.15;;
42964;SDS011;28604;51.204;22.552;2022-10-16T11:22:43;8.63;;;6.50;;
42964;SDS011;28604;51.204;22.552;2022-10-16T11:30:27;6.75;;;5.80;;
42964;SDS011;28604;51.204;22.552;2022-10-16T11:33:04;12.52;;;7.03;;
42964;SDS011;28604;51.204;22.552;2022-10-16T11:40:50;10.02;;;6.45;;
42964;SDS011;28604;51.204;22.552;2022-10-16T11:43:30;9.60;;;6.20;;
42964;SDS011;28604;51.204;22.552;2022-10-16T11:46:04;9.93;;;6.18;;
42964;SDS011;28604;51.204;22.552;2022-10-16T11:51:42;8.23;;;6.68;;
42964;SDS011;28604;51.204;22.552;2022-10-16T11:57:11;8.73;;;6.57;;
42964;SDS011;28604;51.204;22.552;2022-10-16T12:00:08;10.38;;;6.70;;
42964;SDS011;28604;51.204;22.552;2022-10-16T12:03:04;8.45;;;6.22;;
42964;SDS011;28604;51.204;22.552;2022-10-16T12:08:38;8.60;;;6.32;;
42964;SDS011;28604;51.204;22.552;2022-10-16T12:11:22;8.80;;;6.03;;
42964;SDS011;28604;51.204;22.552;2022-10-16T12:13:49;9.05;;;6.68;;
42964;SDS011;28604;51.204;22.552;2022-10-16T12:18:44;8.57;;;7.05;;
42964;SDS011;28604;51.204;22.552;2022-10-16T12:21:12;8.10;;;6.60;;
42964;SDS011;28604;51.204;22.552;2022-10-16T12:23:56;9.05;;;7.57;;
42964;SDS011;28604;51.204;22.552;2022-10-16T12:26:27;8.07;;;7.22;;
42964;SDS011;28604;51.204;22.552;2022-10-16T12:32:02;12.63;;;7.78;;
42964;SDS011;28604;51.204;22.552;2022-10-16T12:34:32;6.90;;;6.20;;
42964;SDS011;28604;51.204;22.552;2022-10-16T12:37:19;9.95;;;6.10;;
42964;SDS011;28604;51.204;22.552;2022-10-16T12:39:48;12.35;;;7.45;;
42964;SDS011;28604;51.204;22.552;2022-10-16T12:44:53;8.30;;;6.70;;
42964;SDS011;28604;51.204;22.552;2022-10-16T12:47:22;12.77;;;6.35;;
42964;SDS011;28604;51.204;22.552;2022-10-16T12:49:57;7.68;;;6.40;;
42964;SDS011;28604;51.204;22.552;2022-10-16T12:52:28;6.28;;;5.68;;
42964;SDS011;28604;51.204;22.552;2022-10-16T12:55:02;6.97;;;5.85;;
42964;SDS011;28604;51.204;22.552;2022-10-16T13:11:15;13.15;;;5.78;;
42964;SDS011;28604;51.204;22.552;2022-10-16T13:17:37;7.53;;;5.65;;
42964;SDS011;28604;51.204;22.552;2022-10-16T13:19:58;7.78;;;5.68;;
42964;SDS011;28604;51.204;22.552;2022-10-16T13:25:12;10.35;;;5.57;;
42964;SDS011;28604;51.204;22.552;2022-10-16T13:30:23;7.57;;;6.20;;
42964;SDS011;28604;51.204;22.552;2022-10-16T13:35:30;6.35;;;5.60;;
42964;SDS011;28604;51.204;22.552;2022-10-16T13:43:19;8.45;;;6.00;;
42964;SDS011;28604;51.204;22.552;2022-10-16T13:45:52;5.80;;;4.65;;
42964;SDS011;28604;51.204;22.552;2022-10-16T13:48:27;8.07;;;5.70;;
42964;SDS011;28604;51.204;22.552;2022-10-16T13:51:00;5.93;;;5.22;;
42964;SDS011;28604;51.204;22.552;2022-10-16T13:53:45;6.78;;;5.75;;
42964;SDS011;28604;51.204;22.552;2022-10-16T13:56:12;10.80;;;5.65;;
42964;SDS011;28604;51.204;22.552;2022-10-16T13:58:40;5.47;;;4.97;;
42964;SDS011;28604;51.204;22.552;2022-10-16T14:03:41;5.78;;;5.18;;
42964;SDS011;28604;51.204;22.552;2022-10-16T14:06:15;8.73;;;5.00;;
42964;SDS011;28604;51.204;22.552;2022-10-16T14:08:51;5.72;;;5.03;;
42964;SDS011;28604;51.204;22.552;2022-10-16T14:11:30;5.32;;;4.88;;
42964;SDS011;28604;51.204;22.552;2022-10-16T14:13:57;7.70;;;5.25;;
42964;SDS011;28604;51.204;22.552;2022-10-16T14:16:24;6.68;;;5.03;;
42964;SDS011;28604;51.204;22.552;2022-10-16T14:21:26;6.28;;;5.00;;
42964;SDS011;28604;51.204;22.552;2022-10-16T14:23:53;7.63;;;5.15;;
42964;SDS011;28604;51.204;22.552;2022-10-16T14:26:25;6.22;;;4.93;;
42964;SDS011;28604;51.204;22.552;2022-10-16T14:29:12;5.37;;;4.53;;
42964;SDS011;28604;51.204;22.552;2022-10-16T14:31:40;4.88;;;4.47;;
42964;SDS011;28604;51.204;22.552;2022-10-16T14:34:23;5.10;;;4.63;;
42964;SDS011;28604;51.204;22.552;2022-10-16T14:36:58;7.07;;;4.70;;
42964;SDS011;28604;51.204;22.552;2022-10-16T14:39:27;6.32;;;4.43;;
42964;SDS011;28604;51.204;22.552;2022-10-16T14:41:55;8.30;;;4.90;;
42964;SDS011;28604;51.204;22.552;2022-10-16T14:44:26;6.88;;;5.18;;
42964;SDS011;28604;51.204;22.552;2022-10-16T14:46:55;6.40;;;5.32;;
42964;SDS011;28604;51.204;22.552;2022-10-16T14:49:21;8.48;;;5.07;;
42964;SDS011;28604;51.204;22.552;2022-10-16T14:51:48;6.60;;;5.20;;
42964;SDS011;28604;51.204;22.552;2022-10-16T14:54:15;5.63;;;5.10;;
42964;SDS011;28604;51.204;22.552;2022-10-16T14:56:45;5.65;;;4.82;;
42964;SDS011;28604;51.204;22.552;2022-10-16T14:59:16;7.95;;;5.13;;
42964;SDS011;28604;51.204;22.552;2022-10-16T15:01:54;6.35;;;4.68;;
42964;SDS011;28604;51.204;22.552;2022-10-16T15:04:20;6.78;;;5.38;;
42964;SDS011;28604;51.204;22.552;2022-10-16T15:06:46;10.10;;;5.80;;
42964;SDS011;28604;51.204;22.552;2022-10-16T15:09:12;5.95;;;4.95;;
42964;SDS011;28604;51.204;22.552;2022-10-16T15:11:38;9.55;;;5.35;;
42964;SDS011;28604;51.204;22.552;2022-10-16T15:14:04;11.73;;;5.45;;
42964;SDS011;28604;51.204;22.552;2022-10-16T15:16:30;5.57;;;5.07;;
42964;SDS011;28604;51.204;22.552;2022-10-16T15:18:57;7.20;;;4.95;;
42964;SDS011;28604;51.204;22.552;2022-10-16T15:21:30;6.65;;;5.20;;
42964;SDS011;28604;51.204;22.552;2022-10-16T15:23:58;6.57;;;5.68;;
42964;SDS011;28604;51.204;22.552;2022-10-16T15:26:25;5.97;;;5.38;;
42964;SDS011;28604;51.204;22.552;2022-10-16T15:28:52;6.00;;;5.45;;
42964;SDS011;28604;51.204;22.552;2022-10-16T15:31:18;8.85;;;6.63;;
42964;SDS011;28604;51.204;22.552;2022-10-16T15:33:45;7.25;;;5.70;;
42964;SDS011;28604;51.204;22.552;2022-10-16T15:36:23;7.85;;;6.07;;
42964;SDS011;28604;51.204;22.552;2022-10-16T15:38:53;10.57;;;7.35;;
42964;SDS011;28604;51.204;22.552;2022-10-16T15:41:19;8.18;;;7.43;;
42964;SDS011;28604;51.204;22.552;2022-10-16T15:43:47;7.95;;;7.10;;
42964;SDS011;28604;51.204;22.552;2022-10-16T15:46:14;10.27;;;7.47;;
42964;SDS011;28604;51.204;22.552;2022-10-16T15:48:43;10.60;;;7.10;;
42964;SDS011;28604;51.204;22.552;2022-10-16T15:51:09;11.43;;;7.00;;
42964;SDS011;28604;51.204;22.552;2022-10-16T15:53:35;9.77;;;7.20;;
42964;SDS011;28604;51.204;22.552;2022-10-16T15:56:02;12.50;;;7.38;;
42964;SDS011;28604;51.204;22.552;2022-10-16T15:58:28;10.02;;;6.88;;
42964;SDS011;28604;51.204;22.552;2022-10-16T16:00:56;7.47;;;6.63;;
42964;SDS011;28604;51.204;22.552;2022-10-16T16:03:25;6.63;;;6.03;;
42964;SDS011;28604;51.204;22.552;2022-10-16T16:05:52;11.45;;;6.70;;
42964;SDS011;28604;51.204;22.552;2022-10-16T16:08:18;8.95;;;6.55;;
42964;SDS011;28604;51.204;22.552;2022-10-16T16:10:44;9.05;;;6.53;;
42964;SDS011;28604;51.204;22.552;2022-10-16T16:13:10;9.85;;;6.85;;
42964;SDS011;28604;51.204;22.552;2022-10-16T16:15:40;11.27;;;6.93;;
42964;SDS011;28604;51.204;22.552;2022-10-16T16:18:06;7.38;;;5.70;;
42964;SDS011;28604;51.204;22.552;2022-10-16T16:20:32;7.57;;;5.97;;
42964;SDS011;28604;51.204;22.552;2022-10-16T16:22:58;12.38;;;6.70;;
42964;SDS011;28604;51.204;22.552;2022-10-16T16:25:24;6.20;;;5.60;;
42964;SDS011;28604;51.204;22.552;2022-10-16T16:27:50;8.35;;;6.35;;
42964;SDS011;28604;51.204;22.552;2022-10-16T16:30:16;6.50;;;5.90;;
42964;SDS011;28604;51.204;22.552;2022-10-16T16:32:44;7.90;;;6.45;;
42964;SDS011;28604;51.204;22.552;2022-10-16T16:35:10;8.93;;;6.00;;
42964;SDS011;28604;51.204;22.552;2022-10-16T16:37:36;14.27;;;6.68;;
42964;SDS011;28604;51.204;22.552;2022-10-16T16:40:02;6.75;;;5.85;;
42964;SDS011;28604;51.204;22.552;2022-10-16T16:42:29;8.82;;;5.72;;
42964;SDS011;28604;51.204;22.552;2022-10-16T16:44:56;10.07;;;5.45;;
42964;SDS011;28604;51.204;22.552;2022-10-16T16:47:22;7.70;;;5.65;;